Time;durP1;ratioP1;P1;durP2;ratioP2;P2;SDS_P1;SDS_P2;PMS_P1;PMS_P2;Temp;Humidity;BMP_temperature;BMP_pressure;BME280_temperature;BME280_humidity;BME280_pressure;Samples;Min_cycle;Max_cycle;Signal;HPM_P1;HPM_P2
2022/05/07 00:10:24;;;;;;;;;;;;;;;19.41;46.35;102358.41;6145872;23;19928;-85
2022/05/07 00:26:53;;;;;;;;;;;;;;;19.40;46.28;102351.44;6163219;23;19952;-83
2022/05/07 00:34:29;;;;;;;;;;;;;;;19.39;46.22;102352.31;6127561;23;19917;-83
2022/05/07 00:36:54;;;;;;;;;;;;;;;19.38;46.22;102346.22;6158306;23;19932;-86
2022/05/07 00:52:17;;;;;;;;;;;;;;;19.37;46.24;102340.97;6154640;23;19913;-86
2022/05/07 00:54:43;;;;;;;;;;;;;;;19.37;46.31;102336.63;6157575;23;19931;-87
2022/05/07 00:57:12;;;;;;;;;;;;;;;19.37;46.19;102343.59;6158262;23;19893;-86
2022/05/07 00:59:37;;;;;;;;;;;;;;;19.36;46.18;102337.50;6157886;23;19940;-86
2022/05/07 01:02:03;;;;;;;;;;;;;;;19.35;46.26;102338.34;6157225;23;19916;-87
2022/05/07 01:04:28;;;;;;;;;;;;;;;19.35;46.21;102333.13;6157549;23;19901;-87
2022/05/07 01:06:53;;;;;;;;;;;;;;;19.36;46.14;102336.59;6158645;23;19920;-85
2022/05/07 01:11:55;;;;;;;;;;;;;;;19.36;46.19;102336.59;6143047;23;19920;-83
2022/05/07 01:14:22;;;;;;;;;;;;;;;19.36;46.25;102334.91;6156489;23;19900;-86
2022/05/07 01:55:33;;;;;;;;;;;;;;;19.34;46.18;102320.97;6126915;23;19923;-86
2022/05/07 01:57:59;;;;;;;;;;;;;;;19.33;46.31;102324.41;6157733;23;19921;-90
2022/05/07 02:00:25;;;;;;;;;;;;;;;19.34;46.30;102320.97;6131730;23;19916;-90
2022/05/07 02:02:50;;;;;;;;;;;;;;;19.34;46.20;102328.78;6131906;23;19912;-90
2022/05/07 02:05:15;;;;;;;;;;;;;;;19.32;46.39;102315.72;6106472;23;19912;-90
2022/05/07 02:07:41;;;;;;;;;;;;;;;19.32;46.24;102315.72;6131544;23;19951;-90
2022/05/07 02:10:06;;;;;;;;;;;;;;;19.32;46.28;102317.47;6131438;23;19932;-90
2022/05/07 02:12:31;;;;;;;;;;;;;;;19.32;46.34;102322.69;6131271;23;19931;-89
2022/05/07 02:14:57;;;;;;;;;;;;;;;19.33;46.34;102313.97;6131612;23;19944;-90
2022/05/07 02:17:22;;;;;;;;;;;;;;;19.32;46.23;102307.88;6107010;23;19920;-89
2022/05/07 02:19:47;;;;;;;;;;;;;;;19.31;46.39;102313.97;6131437;23;19967;-88
2022/05/07 02:22:12;;;;;;;;;;;;;;;19.33;46.34;102320.06;6106903;23;19924;-79
2022/05/07 02:24:38;;;;;;;;;;;;;;;19.32;46.36;102320.94;6106586;23;20070;-90
2022/05/07 02:27:03;;;;;;;;;;;;;;;19.32;46.26;102307.88;6131495;23;19916;-90
2022/05/07 02:29:28;;;;;;;;;;;;;;;19.32;46.36;102307.03;6107165;23;19912;-90
2022/05/07 02:32:03;;;;;;;;;;;;;;;19.32;46.37;102317.47;6130661;23;19912;-79
2022/05/07 02:34:31;;;;;;;;;;;;;;;19.31;46.30;102316.59;6109779;23;19912;-78
2022/05/07 02:36:57;;;;;;;;;;;;;;;19.31;46.33;102320.91;6132656;23;19916;-79
2022/05/07 02:39:22;;;;;;;;;;;;;;;19.30;46.30;102325.28;6133947;23;20313;-80
2022/05/07 02:44:31;;;;;;;;;;;;;;;19.31;46.25;102323.53;6136598;23;19975;-79
2022/05/07 02:46:57;;;;;;;;;;;;;;;19.30;46.33;102324.41;6132373;23;20281;-79
2022/05/07 02:49:22;;;;;;;;;;;;;;;19.30;46.31;102327.88;6132625;23;19994;-79
2022/05/07 02:51:47;;;;;;;;;;;;;;;19.31;46.36;102320.91;6108024;23;19912;-79
2022/05/07 02:54:12;;;;;;;;;;;;;;;19.30;46.40;102322.66;6107849;23;20456;-79
2022/05/07 02:56:38;;;;;;;;;;;;;;;19.30;46.41;102324.41;6131972;23;19925;-79
2022/05/07 02:59:03;;;;;;;;;;;;;;;19.29;46.45;102320.03;6132660;23;20007;-79
2022/05/07 03:01:28;;;;;;;;;;;;;;;19.30;46.35;102324.41;6132323;23;19940;-79
2022/05/07 03:03:53;;;;;;;;;;;;;;;19.29;46.42;102328.75;6132302;23;19995;-79
2022/05/07 03:06:19;;;;;;;;;;;;;;;19.30;46.42;102327.00;6132235;23;19948;-79
2022/05/07 03:08:44;;;;;;;;;;;;;;;19.30;46.30;102333.09;6132472;23;19909;-79
2022/05/07 03:11:09;;;;;;;;;;;;;;;19.28;46.30;102324.38;6132538;23;19912;-79
2022/05/07 03:13:35;;;;;;;;;;;;;;;19.30;46.49;102337.47;6132457;23;19913;-79
2022/05/07 03:16:00;;;;;;;;;;;;;;;19.28;46.38;102332.22;6107795;23;19927;-79
2022/05/07 03:18:25;;;;;;;;;;;;;;;19.29;46.44;102322.63;6107636;23;19913;-79
2022/05/07 03:20:50;;;;;;;;;;;;;;;19.29;46.46;102333.09;6158714;23;19944;-79
2022/05/07 03:23:15;;;;;;;;;;;;;;;19.29;46.41;102330.47;6107631;23;20249;-79
2022/05/07 03:25:41;;;;;;;;;;;;;;;19.29;46.38;102328.75;6131926;23;19967;-79
2022/05/07 03:28:07;;;;;;;;;;;;;;;19.29;46.31;102333.09;6107710;23;19916;-79
2022/05/07 03:30:32;;;;;;;;;;;;;;;19.28;46.37;102329.59;6132260;23;19918;-79
2022/05/07 03:32:57;;;;;;;;;;;;;;;19.28;46.27;102337.44;6158322;23;19987;-78
2022/05/07 03:35:23;;;;;;;;;;;;;;;19.28;46.37;102334.81;6107876;23;19912;-78
2022/05/07 03:37:48;;;;;;;;;;;;;;;19.28;46.45;102337.44;6107644;23;20310;-78
2022/05/07 03:40:13;;;;;;;;;;;;;;;19.28;46.36;102336.56;6107591;23;19917;-78
2022/05/07 03:42:38;;;;;;;;;;;;;;;19.28;46.36;102339.19;6132207;23;19924;-78
2022/05/07 03:45:04;;;;;;;;;;;;;;;19.29;46.52;102340.91;6107401;23;19959;-79
2022/05/07 03:47:29;;;;;;;;;;;;;;;19.28;46.37;102333.97;6107423;23;19967;-79
2022/05/07 03:49:54;;;;;;;;;;;;;;;19.27;46.52;102338.31;6107713;23;19913;-79
2022/05/07 03:55:04;;;;;;;;;;;;;;;19.28;46.37;102337.44;6135857;23;20292;-79
2022/05/07 03:57:29;;;;;;;;;;;;;;;19.29;46.58;102343.53;6107919;23;19917;-90
2022/05/07 03:59:55;;;;;;;;;;;;;;;19.28;46.53;102352.22;6108698;23;20031;-89
2022/05/07 04:02:21;;;;;;;;;;;;;;;19.28;46.38;102354.84;6109502;23;20052;-79
2022/05/07 04:04:47;;;;;;;;;;;;;;;19.27;46.40;102353.06;6134961;23;19913;-80
2022/05/07 04:07:14;;;;;;;;;;;;;;;19.27;46.40;102350.47;6107536;23;19992;-79
2022/05/07 04:09:39;;;;;;;;;;;;;;;19.28;46.32;102352.22;6107774;23;19912;-79
2022/05/07 04:12:08;;;;;;;;;;;;;;;19.27;46.47;102353.06;6107299;23;19919;-78
2022/05/07 04:14:33;;;;;;;;;;;;;;;19.27;46.53;102353.97;6131841;23;19913;-78
2022/05/07 04:16:58;;;;;;;;;;;;;;;19.27;46.69;102353.06;6107444;23;20237;-78
2022/05/07 04:19:24;;;;;;;;;;;;;;;19.28;46.36;102347.00;6131687;23;19967;-80
2022/05/07 04:21:50;;;;;;;;;;;;;;;19.27;46.43;102351.38;6131707;23;20233;-80
2022/05/07 04:24:15;;;;;;;;;;;;;;;19.26;46.40;102352.22;6131572;23;19923;-79
2022/05/07 04:26:40;;;;;;;;;;;;;;;19.27;46.35;102358.28;6131722;23;20322;-80
2022/05/07 04:29:05;;;;;;;;;;;;;;;19.26;46.42;102349.59;6107453;23;20334;-79
2022/05/07 04:31:31;;;;;;;;;;;;;;;19.27;46.61;102347.84;6107226;23;19991;-79
2022/05/07 04:33:56;;;;;;;;;;;;;;;19.26;46.38;102349.59;6107088;23;19920;-80
2022/05/07 04:36:21;;;;;;;;;;;;;;;19.27;46.37;102345.25;6107031;23;20286;-80
2022/05/07 04:38:46;;;;;;;;;;;;;;;19.26;46.52;102348.72;6107036;23;19912;-80
2022/05/07 04:41:12;;;;;;;;;;;;;;;19.27;46.38;102345.25;6131502;23;19991;-79
2022/05/07 04:43:37;;;;;;;;;;;;;;;19.26;46.36;102336.56;6106887;23;19916;-79
2022/05/07 04:46:02;;;;;;;;;;;;;;;19.27;46.43;102342.63;6106865;23;20384;-78
2022/05/07 04:48:28;;;;;;;;;;;;;;;19.26;46.54;102341.78;6107259;23;19913;-80
2022/05/07 04:50:53;;;;;;;;;;;;;;;19.27;46.32;102340.91;6131262;23;20314;-80
2022/05/07 04:53:18;;;;;;;;;;;;;;;19.26;46.50;102336.56;6107103;23;20317;-80
2022/05/07 04:55:43;;;;;;;;;;;;;;;19.27;46.51;102334.81;6106682;23;19963;-79
2022/05/07 04:58:09;;;;;;;;;;;;;;;19.27;46.36;102340.91;6130899;23;19913;-79
2022/05/07 05:00:34;;;;;;;;;;;;;;;19.27;46.25;102346.16;6106832;23;19916;-80
2022/05/07 05:02:59;;;;;;;;;;;;;;;19.28;46.44;102347.00;6106708;23;20043;-77
2022/05/07 05:05:29;;;;;;;;;;;;;;;19.28;46.48;102349.63;6106818;23;19919;-79
2022/05/07 05:07:54;;;;;;;;;;;;;;;19.29;46.48;102348.75;6132228;23;19912;-79
2022/05/07 05:10:19;;;;;;;;;;;;;;;19.30;46.31;102353.13;6131177;23;19909;-79
2022/05/07 05:12:45;;;;;;;;;;;;;;;19.31;46.28;102352.25;6131153;23;19908;-79
2022/05/07 05:15:10;;;;;;;;;;;;;;;19.31;46.35;102354.84;6106605;23;19987;-79
2022/05/07 05:17:37;;;;;;;;;;;;;;;19.32;46.27;102361.84;6131233;23;19919;-79
2022/05/07 05:20:03;;;;;;;;;;;;;;;19.33;46.54;102369.66;6130920;23;19982;-79
2022/05/07 05:22:28;;;;;;;;;;;;;;;19.35;46.27;102369.69;6131644;23;19908;-90
2022/05/07 05:24:57;;;;;;;;;;;;;;;19.37;46.31;102369.69;6107589;23;19944;-90
2022/05/07 05:27:22;;;;;;;;;;;;;;;19.37;46.33;102375.78;6135106;23;19928;-90
2022/05/07 05:29:48;;;;;;;;;;;;;;;19.39;46.20;102376.66;6108963;23;19991;-90
2022/05/07 05:32:19;;;;;;;;;;;;;;;19.42;46.23;102381.03;6131686;23;19963;-90
2022/05/07 05:34:48;;;;;;;;;;;;;;;19.42;46.20;102381.91;6131914;23;19908;-90
2022/05/07 05:37:14;;;;;;;;;;;;;;;19.43;46.28;102381.06;6158013;23;19909;-90
2022/05/07 05:39:40;;;;;;;;;;;;;;;19.43;46.34;102383.66;6157753;23;19908;-89
2022/05/07 05:42:05;;;;;;;;;;;;;;;19.43;46.22;102383.66;6107182;23;19916;-90
2022/05/07 05:44:30;;;;;;;;;;;;;;;19.44;46.17;102381.91;6107139;23;20325;-90
2022/05/07 05:46:56;;;;;;;;;;;;;;;19.44;46.18;102384.53;6107505;23;19991;-91
2022/05/07 05:49:21;;;;;;;;;;;;;;;19.43;46.27;102388.88;6131868;23;19913;-91
2022/05/07 05:51:46;;;;;;;;;;;;;;;19.43;46.26;102380.19;6107675;23;19940;-90
2022/05/07 05:54:11;;;;;;;;;;;;;;;19.42;46.28;102387.13;6131722;23;19917;-90
2022/05/07 05:56:37;;;;;;;;;;;;;;;19.43;46.28;102393.25;6131349;23;19991;-89
2022/05/07 05:59:02;;;;;;;;;;;;;;;19.43;46.19;102395.84;6131997;23;19955;-90
2022/05/07 06:01:27;;;;;;;;;;;;;;;19.43;46.20;102403.69;6131928;23;19912;-90
2022/05/07 06:03:53;;;;;;;;;;;;;;;19.42;46.28;102401.91;6157891;23;19916;-89
2022/05/07 06:06:21;;;;;;;;;;;;;;;19.43;46.18;102406.28;6132478;23;19909;-90
2022/05/07 06:08:47;;;;;;;;;;;;;;;19.43;46.24;102411.53;6108083;23;19913;-90
2022/05/07 06:11:12;;;;;;;;;;;;;;;19.43;46.22;102408.91;6158870;23;19909;-90
2022/05/07 06:13:38;;;;;;;;;;;;;;;19.44;46.23;102416.72;6132085;23;20233;-89
2022/05/07 06:16:03;;;;;;;;;;;;;;;19.44;46.16;102410.63;6130996;23;19908;-90
2022/05/07 06:18:29;;;;;;;;;;;;;;;19.44;46.15;102414.13;6157796;23;19913;-89
2022/05/07 06:20:54;;;;;;;;;;;;;;;19.45;46.23;102420.25;6155994;23;19913;-90
2022/05/07 06:23:20;;;;;;;;;;;;;;;19.44;46.15;102427.16;6107295;23;19935;-90
2022/05/07 06:28:29;;;;;;;;;;;;;;;19.45;46.15;102433.28;6157504;23;20293;-78
2022/05/07 06:30:54;;;;;;;;;;;;;;;19.47;46.16;102434.19;6130627;23;19913;-78
2022/05/07 06:33:20;;;;;;;;;;;;;;;19.47;46.29;102440.25;6106144;23;19952;-78
2022/05/07 06:35:46;;;;;;;;;;;;;;;19.47;46.01;102440.25;6130959;23;19912;-79
2022/05/07 06:38:11;;;;;;;;;;;;;;;19.49;46.08;102438.53;6106339;23;19955;-78
2022/05/07 06:40:38;;;;;;;;;;;;;;;19.50;46.24;102442.03;6106022;23;19916;-79
2022/05/07 06:43:04;;;;;;;;;;;;;;;19.51;46.25;102434.22;6130462;23;19915;-78
2022/05/07 06:45:29;;;;;;;;;;;;;;;19.52;46.17;102435.94;6156718;23;19908;-79
2022/05/07 06:47:54;;;;;;;;;;;;;;;19.51;46.16;102439.44;6105934;23;20308;-79
2022/05/07 06:50:20;;;;;;;;;;;;;;;19.54;46.14;102438.56;6106851;23;19912;-79
2022/05/07 06:52:45;;;;;;;;;;;;;;;19.53;46.26;102434.19;6132446;23;19908;-78
2022/05/07 06:55:13;;;;;;;;;;;;;;;19.54;46.26;102446.41;6131157;23;19909;-79
2022/05/07 06:57:38;;;;;;;;;;;;;;;19.54;46.22;102441.19;6130549;23;19920;-79
2022/05/07 07:00:03;;;;;;;;;;;;;;;19.52;46.28;102438.56;6106090;23;20008;-78
2022/05/07 07:02:29;;;;;;;;;;;;;;;19.55;46.22;102436.84;6156521;23;19972;-78
2022/05/07 07:04:54;;;;;;;;;;;;;;;19.55;46.16;102431.59;6106169;23;19916;-78
2022/05/07 07:07:24;;;;;;;;;;;;;;;19.56;46.21;102441.22;6130630;23;19955;-78
2022/05/07 07:09:50;;;;;;;;;;;;;;;19.55;46.13;102440.31;6107482;23;19913;-78
2022/05/07 07:12:15;;;;;;;;;;;;;;;19.56;46.28;102447.31;6130957;23;19920;-78
2022/05/07 07:14:40;;;;;;;;;;;;;;;19.57;46.11;102453.38;6130572;23;20321;-78
2022/05/07 07:17:06;;;;;;;;;;;;;;;19.61;46.20;102457.78;6106062;23;19919;-78
2022/05/07 07:19:32;;;;;;;;;;;;;;;19.63;46.08;102456.06;6130654;23;19913;-79
2022/05/07 07:21:57;;;;;;;;;;;;;;;19.62;46.05;102457.81;6132218;23;19924;-79
2022/05/07 07:24:23;;;;;;;;;;;;;;;19.65;46.05;102449.97;6158288;23;20238;-79
2022/05/07 07:26:48;;;;;;;;;;;;;;;19.69;46.08;102458.72;6131929;23;20021;-79
2022/05/07 07:29:13;;;;;;;;;;;;;;;19.67;46.01;102460.44;6107931;23;19913;-79
2022/05/07 07:31:38;;;;;;;;;;;;;;;19.65;46.14;102455.19;6132274;23;19909;-79
2022/05/07 07:34:04;;;;;;;;;;;;;;;19.65;46.06;102452.59;6158597;23;20322;-78
2022/05/07 07:36:29;;;;;;;;;;;;;;;19.65;46.18;102462.16;6134594;23;19908;-78
2022/05/07 07:38:54;;;;;;;;;;;;;;;19.64;46.14;102461.31;6135653;23;19915;-79
2022/05/07 07:41:20;;;;;;;;;;;;;;;19.65;46.10;102462.16;6132410;23;20303;-79
2022/05/07 07:43:45;;;;;;;;;;;;;;;19.66;46.18;102462.19;6135405;23;19912;-79
2022/05/07 07:48:54;;;;;;;;;;;;;;;19.67;46.06;102466.53;6162431;23;19967;-78
2022/05/07 07:51:20;;;;;;;;;;;;;;;19.68;46.08;102472.63;6163502;23;19916;-79
2022/05/07 07:53:45;;;;;;;;;;;;;;;19.67;46.08;102465.66;6136333;23;19908;-78
2022/05/07 07:56:12;;;;;;;;;;;;;;;19.66;46.11;102471.72;6162994;23;20210;-80
2022/05/07 07:58:37;;;;;;;;;;;;;;;19.65;46.18;102473.47;6135999;23;19909;-80
2022/05/07 08:01:03;;;;;;;;;;;;;;;19.65;46.18;102472.63;6135747;23;20325;-80
2022/05/07 08:03:28;;;;;;;;;;;;;;;19.64;46.13;102476.97;6108393;23;19963;-81
2022/05/07 08:05:53;;;;;;;;;;;;;;;19.64;46.14;102469.13;6132624;23;19908;-80
2022/05/07 08:13:48;;;;;;;;;;;;;;;19.73;46.03;102465.75;6158290;23;19916;-80
2022/05/07 08:16:13;;;;;;;;;;;;;;;19.74;46.07;102467.47;6159726;23;19913;-89
2022/05/07 08:18:39;;;;;;;;;;;;;;;19.76;46.06;102465.75;6159379;23;20344;-90
2022/05/07 08:21:09;;;;;;;;;;;;;;;19.76;46.17;102467.50;6158531;23;19995;-89
2022/05/07 08:23:34;;;;;;;;;;;;;;;19.76;46.11;102470.13;6132213;23;19991;-89
2022/05/07 08:26:02;;;;;;;;;;;;;;;19.75;46.02;102469.25;6132387;23;19916;-89
2022/05/07 08:28:28;;;;;;;;;;;;;;;19.75;46.00;102471.88;6108706;23;19913;-88
2022/05/07 08:30:53;;;;;;;;;;;;;;;19.76;46.10;102472.72;6132688;23;20393;-89
2022/05/07 08:33:18;;;;;;;;;;;;;;;19.76;46.04;102481.44;6158778;23;19908;-88
2022/05/07 08:35:44;;;;;;;;;;;;;;;19.76;45.94;102480.56;6132699;23;20317;-89
2022/05/07 08:38:09;;;;;;;;;;;;;;;19.77;45.94;102480.56;6132552;23;19964;-89
2022/05/07 08:40:34;;;;;;;;;;;;;;;19.78;46.01;102486.69;6107643;23;19965;-88
2022/05/07 08:42:59;;;;;;;;;;;;;;;19.78;45.88;102484.94;6107893;23;19944;-89
2022/05/07 08:45:25;;;;;;;;;;;;;;;19.81;45.95;102499.75;6132604;23;19936;-89
2022/05/07 08:47:53;;;;;;;;;;;;;;;19.82;45.94;102494.53;6158320;23;19979;-89
2022/05/07 08:50:19;;;;;;;;;;;;;;;19.83;45.74;102498.88;6107735;23;19912;-89
2022/05/07 08:52:44;;;;;;;;;;;;;;;19.83;45.91;102495.41;6132094;23;19954;-89
2022/05/07 08:55:19;;;;;;;;;;;;;;;19.83;45.85;102500.63;6132195;23;19909;-89
2022/05/07 08:57:49;;;;;;;;;;;;;;;19.84;45.91;102502.41;6158107;23;19987;-89
2022/05/07 09:00:24;;;;;;;;;;;;;;;19.87;45.80;102503.28;6131941;23;20318;-89
2022/05/07 09:02:59;;;;;;;;;;;;;;;19.88;45.77;102501.53;6107597;23;19913;-89
2022/05/07 09:05:35;;;;;;;;;;;;;;;19.88;45.83;102507.66;6158100;23;20211;-88
2022/05/07 09:08:01;;;;;;;;;;;;;;;19.90;45.88;102505.03;6107604;23;19988;-89
2022/05/07 09:10:27;;;;;;;;;;;;;;;19.91;45.76;102505.06;6131953;23;19909;-89
2022/05/07 09:12:53;;;;;;;;;;;;;;;19.92;45.80;102512.03;6132419;23;19915;-89
2022/05/07 09:15:18;;;;;;;;;;;;;;;19.94;45.77;102510.28;6158154;23;20211;-89
2022/05/07 09:17:47;;;;;;;;;;;;;;;19.97;45.70;102513.78;6131289;23;19983;-78
2022/05/07 09:20:13;;;;;;;;;;;;;;;19.94;45.77;102512.91;6130965;23;20242;-78
2022/05/07 09:22:54;;;;;;;;;;;;;;;19.94;45.72;102517.25;6131188;23;20250;-78
2022/05/07 09:25:21;;;;;;;;;;;;;;;19.95;45.61;102516.41;6130955;23;19908;-78
2022/05/07 09:27:47;;;;;;;;;;;;;;;19.94;45.65;102517.25;6106910;23;19912;-78
2022/05/07 09:30:12;;;;;;;;;;;;;;;19.93;45.81;102515.53;6157149;23;19959;-79
2022/05/07 09:32:38;;;;;;;;;;;;;;;19.92;45.77;102518.97;6106389;23;19912;-78
2022/05/07 09:38:01;;;;;;;;;;;;;;;19.91;45.78;102523.34;6135221;23;19943;-79
2022/05/07 09:40:27;;;;;;;;;;;;;;;19.90;45.86;102521.59;6106330;23;19924;-79
2022/05/07 09:42:53;;;;;;;;;;;;;;;19.89;45.88;102514.63;6130723;23;20244;-79
2022/05/07 09:45:19;;;;;;;;;;;;;;;19.88;45.87;102520.72;6157254;23;20240;-79
2022/05/07 09:47:45;;;;;;;;;;;;;;;19.87;45.82;102529.41;6157016;23;19932;-77
2022/05/07 09:50:20;;;;;;;;;;;;;;;19.87;45.96;102529.41;6130849;23;20297;-80
2022/05/07 09:58:17;;;;;;;;;;;;;;;19.86;45.99;102527.66;6156592;23;20360;-79
2022/05/07 10:00:53;;;;;;;;;;;;;;;19.85;46.08;102525.03;6130967;23;19917;-79
2022/05/07 10:03:50;;;;;;;;;;;;;;;19.84;46.00;102529.41;6156932;23;20313;-78
2022/05/07 10:06:34;;;;;;;;;;;;;;;19.84;46.04;102528.53;6123405;23;19954;-78
2022/05/07 10:09:17;;;;;;;;;;;;;;;19.83;46.13;102532.84;6131108;23;19909;-79
2022/05/07 10:11:44;;;;;;;;;;;;;;;19.83;46.14;102537.22;6130793;23;19948;-79
2022/05/07 10:14:23;;;;;;;;;;;;;;;19.82;46.17;102531.13;6130780;23;20292;-79
2022/05/07 10:16:55;;;;;;;;;;;;;;;19.83;46.15;102521.53;6130615;23;20389;-79
2022/05/07 10:19:20;;;;;;;;;;;;;;;19.82;46.17;102528.50;6156947;23;20289;-79
2022/05/07 10:21:55;;;;;;;;;;;;;;;19.82;46.18;102532.88;6156765;23;19944;-79
2022/05/07 10:24:20;;;;;;;;;;;;;;;19.83;46.01;102531.97;6106535;23;19916;-79
2022/05/07 10:26:45;;;;;;;;;;;;;;;19.83;46.02;102530.25;6130765;23;20052;-79
2022/05/07 10:29:21;;;;;;;;;;;;;;;19.84;46.28;102536.38;6130619;23;19920;-80
2022/05/07 10:31:46;;;;;;;;;;;;;;;19.84;46.24;102538.97;6130823;23;19920;-79
2022/05/07 10:34:23;;;;;;;;;;;;;;;19.84;46.08;102537.22;6130748;23;19908;-79
2022/05/07 10:36:58;;;;;;;;;;;;;;;19.85;46.25;102538.09;6156759;23;19915;-79
2022/05/07 10:39:23;;;;;;;;;;;;;;;19.86;46.19;102540.72;6130673;23;20326;-79
2022/05/07 10:41:49;;;;;;;;;;;;;;;19.86;46.04;102534.59;6130804;23;20008;-79
2022/05/07 10:44:17;;;;;;;;;;;;;;;19.86;46.20;102539.84;6156891;23;19908;-79
2022/05/07 10:46:45;;;;;;;;;;;;;;;19.86;46.21;102532.91;6157169;23;19920;-79
2022/05/07 10:49:11;;;;;;;;;;;;;;;19.86;46.17;102535.50;6130621;23;19912;-79
2022/05/07 10:51:53;;;;;;;;;;;;;;;19.87;46.06;102537.25;6130711;23;19943;-79
2022/05/07 10:54:19;;;;;;;;;;;;;;;19.87;46.11;102537.25;6131372;23;20292;-79
2022/05/07 10:56:45;;;;;;;;;;;;;;;19.86;46.06;102538.13;6132333;23;19920;-79
2022/05/07 10:59:11;;;;;;;;;;;;;;;19.88;46.10;102538.09;6132691;23;19924;-79
2022/05/07 11:01:36;;;;;;;;;;;;;;;19.87;46.15;102539.84;6132301;23;19913;-80
2022/05/07 11:04:05;;;;;;;;;;;;;;;19.87;46.13;102541.59;6133206;23;19912;-79
2022/05/07 11:06:31;;;;;;;;;;;;;;;19.87;46.22;102538.97;6158647;23;19908;-78
2022/05/07 11:08:57;;;;;;;;;;;;;;;19.87;46.22;102536.38;6132775;23;19951;-79
2022/05/07 11:11:24;;;;;;;;;;;;;;;19.88;46.11;102540.72;6132241;23;20333;-79
2022/05/07 11:13:53;;;;;;;;;;;;;;;19.87;46.27;102546.81;6108756;23;20234;-79
2022/05/07 11:16:20;;;;;;;;;;;;;;;19.86;46.25;102540.72;6132344;23;19979;-80
2022/05/07 11:18:53;;;;;;;;;;;;;;;19.88;46.13;102538.09;6158518;23;19913;-79
2022/05/07 11:21:19;;;;;;;;;;;;;;;19.87;46.28;102536.38;6132232;23;19916;-80
2022/05/07 11:23:44;;;;;;;;;;;;;;;19.87;46.33;102538.97;6132271;23;19908;-79
2022/05/07 11:26:11;;;;;;;;;;;;;;;19.87;46.30;102538.97;6132201;23;19919;-80
2022/05/07 11:28:37;;;;;;;;;;;;;;;19.87;46.37;102539.84;6132326;23;19963;-79
2022/05/07 11:31:02;;;;;;;;;;;;;;;19.87;46.29;102531.16;6132377;23;20269;-80
2022/05/07 11:33:28;;;;;;;;;;;;;;;19.87;46.29;102534.63;6157251;23;19908;-79
2022/05/07 11:36:06;;;;;;;;;;;;;;;19.88;46.31;102536.41;6132997;23;19963;-79
2022/05/07 11:38:31;;;;;;;;;;;;;;;19.88;46.14;102538.09;6158651;23;19912;-79
2022/05/07 11:41:07;;;;;;;;;;;;;;;19.88;46.40;102540.72;6132016;23;20003;-79
2022/05/07 11:46:16;;;;;;;;;;;;;;;19.89;46.32;102545.09;6158297;23;19956;-79
2022/05/07 11:48:41;;;;;;;;;;;;;;;19.89;46.46;102543.34;6157995;23;19985;-80
2022/05/07 11:51:07;;;;;;;;;;;;;;;19.89;46.37;102538.13;6158167;23;19959;-79
2022/05/07 11:53:35;;;;;;;;;;;;;;;19.89;46.43;102543.34;6131935;23;19987;-79
2022/05/07 11:56:08;;;;;;;;;;;;;;;19.90;46.45;102539.00;6158059;23;19917;-79
2022/05/07 11:58:40;;;;;;;;;;;;;;;19.90;46.41;102537.28;6158084;23;19927;-78
2022/05/07 12:01:16;;;;;;;;;;;;;;;19.90;46.44;102532.06;6132060;23;19971;-79
2022/05/07 12:03:41;;;;;;;;;;;;;;;19.91;46.40;102539.03;6132138;23;19909;-79
2022/05/07 12:06:06;;;;;;;;;;;;;;;19.91;46.56;102532.94;6131858;23;19920;-79
2022/05/07 12:08:32;;;;;;;;;;;;;;;19.91;46.55;102541.63;6158374;23;19967;-79
2022/05/07 12:10:58;;;;;;;;;;;;;;;19.91;46.40;102539.03;6132023;23;20047;-79
2022/05/07 12:13:24;;;;;;;;;;;;;;;19.92;46.45;102534.66;6158128;23;19908;-79
2022/05/07 12:18:34;;;;;;;;;;;;;;;19.92;46.69;102540.78;6157981;23;19992;-79
2022/05/07 12:20:59;;;;;;;;;;;;;;;19.93;46.58;102539.91;6131812;23;19940;-79
2022/05/07 12:31:48;;;;;;;;;;;;;;;19.95;46.61;102547.75;6158114;23;19931;-79
2022/05/07 12:34:13;;;;;;;;;;;;;;;19.96;46.70;102549.50;6107165;23;20337;-79
2022/05/07 12:36:38;;;;;;;;;;;;;;;19.97;46.80;102551.28;6131724;23;19967;-79
2022/05/07 12:39:03;;;;;;;;;;;;;;;19.98;46.62;102550.38;6106898;23;19912;-79
2022/05/07 12:41:29;;;;;;;;;;;;;;;19.98;46.71;102545.16;6131407;23;19999;-79
2022/05/07 12:43:57;;;;;;;;;;;;;;;19.99;46.70;102546.94;6157803;23;20244;-79
2022/05/07 12:46:24;;;;;;;;;;;;;;;19.99;46.75;102549.53;6157698;23;20336;-79
2022/05/07 12:48:49;;;;;;;;;;;;;;;20.01;46.71;102554.75;6157734;23;19916;-79
2022/05/07 12:51:14;;;;;;;;;;;;;;;20.01;46.73;102546.91;6131656;23;19909;-79
2022/05/07 12:53:40;;;;;;;;;;;;;;;20.02;46.77;102543.47;6107048;23;19959;-80
2022/05/07 12:56:05;;;;;;;;;;;;;;;20.01;46.71;102539.97;6106792;23;20347;-78
2022/05/07 12:58:30;;;;;;;;;;;;;;;20.03;46.77;102550.41;6107105;23;20039;-80
2022/05/07 13:00:56;;;;;;;;;;;;;;;20.02;46.76;102541.72;6106823;23;19923;-79
2022/05/07 13:03:21;;;;;;;;;;;;;;;20.03;46.79;102542.59;6131979;23;19909;-80
2022/05/07 13:05:47;;;;;;;;;;;;;;;20.03;46.76;102539.97;6131232;23;19908;-79
2022/05/07 13:08:14;;;;;;;;;;;;;;;20.04;46.67;102545.22;6131161;23;19983;-80
2022/05/07 13:10:40;;;;;;;;;;;;;;;20.05;46.81;102535.63;6107282;23;19913;-79
2022/05/07 13:13:05;;;;;;;;;;;;;;;20.05;46.79;102541.72;6131374;23;19909;-79
2022/05/07 13:15:31;;;;;;;;;;;;;;;20.06;46.75;102534.78;6106646;23;19999;-79
2022/05/07 13:17:57;;;;;;;;;;;;;;;20.06;46.67;102537.41;6130670;23;20015;-78
2022/05/07 13:20:23;;;;;;;;;;;;;;;20.06;46.83;102532.16;6157577;23;19912;-79
2022/05/07 13:22:48;;;;;;;;;;;;;;;20.05;46.63;102535.63;6157480;23;20222;-79
2022/05/07 13:25:14;;;;;;;;;;;;;;;20.05;46.87;102533.00;6131324;23;19913;-79
2022/05/07 13:27:39;;;;;;;;;;;;;;;20.05;46.74;102530.41;6106935;23;19967;-79
2022/05/07 13:30:07;;;;;;;;;;;;;;;20.06;46.80;102542.63;6131756;23;19909;-82
2022/05/07 13:32:34;;;;;;;;;;;;;;;20.05;46.72;102540.84;6157164;23;19968;-78
2022/05/07 13:35:00;;;;;;;;;;;;;;;20.05;46.77;102539.09;6107132;23;19905;-83
2022/05/07 13:37:26;;;;;;;;;;;;;;;20.07;46.75;102536.50;6131484;23;19912;-78
2022/05/07 13:39:52;;;;;;;;;;;;;;;20.10;46.62;102531.31;6157743;23;19913;-84
2022/05/07 13:42:17;;;;;;;;;;;;;;;20.09;46.69;102525.19;6132167;23;19952;-79
2022/05/07 13:44:42;;;;;;;;;;;;;;;20.10;46.48;102532.19;6131074;23;19916;-78
2022/05/07 13:47:08;;;;;;;;;;;;;;;20.10;46.81;102539.16;6157228;23;20236;-79
2022/05/07 13:49:34;;;;;;;;;;;;;;;20.10;46.65;102529.59;6107069;23;19952;-79
2022/05/07 13:52:00;;;;;;;;;;;;;;;20.09;46.73;102532.19;6106757;23;20305;-84
2022/05/07 13:54:26;;;;;;;;;;;;;;;20.10;46.83;102533.94;6131475;23;19975;-80
2022/05/07 13:56:51;;;;;;;;;;;;;;;20.11;46.84;102533.06;6107412;23;20333;-80
2022/05/07 13:59:16;;;;;;;;;;;;;;;20.12;46.69;102530.47;6107867;23;19920;-82
2022/05/07 14:01:42;;;;;;;;;;;;;;;20.15;46.74;102532.22;6158508;23;19916;-80
2022/05/07 14:04:07;;;;;;;;;;;;;;;20.16;46.67;102531.34;6157783;23;19915;-79
2022/05/07 14:06:32;;;;;;;;;;;;;;;20.17;46.73;102532.25;6132126;23;19912;-81
2022/05/07 14:08:57;;;;;;;;;;;;;;;20.17;46.65;102529.63;6131599;23;19915;-79
2022/05/07 14:11:22;;;;;;;;;;;;;;;20.16;46.82;102531.34;6131330;23;19955;-80
2022/05/07 14:13:48;;;;;;;;;;;;;;;20.17;46.89;102540.94;6157249;23;19913;-80
2022/05/07 14:16:13;;;;;;;;;;;;;;;20.17;46.75;102532.25;6157128;23;19987;-78
2022/05/07 14:18:39;;;;;;;;;;;;;;;20.18;46.71;102541.81;6106792;23;19912;-83
2022/05/07 14:21:05;;;;;;;;;;;;;;;20.19;46.50;102534.00;6107399;23;19940;-85
2022/05/07 14:23:30;;;;;;;;;;;;;;;20.11;46.40;102535.69;6131512;23;20241;-81
2022/05/07 14:25:56;;;;;;;;;;;;;;;20.07;46.45;102542.59;6131694;23;20400;-80
2022/05/07 14:28:21;;;;;;;;;;;;;;;20.01;46.42;102537.38;6131332;23;19915;-88
2022/05/07 14:30:46;;;;;;;;;;;;;;;20.00;46.65;102545.19;6160129;23;20245;-86
2022/05/07 14:33:11;;;;;;;;;;;;;;;20.06;46.66;102537.41;6159668;23;19913;-85